Time;durP1;ratioP1;P1;durP2;ratioP2;P2;SDS_P1;SDS_P2;PMS_P1;PMS_P2;Temp;Humidity;BMP_temperature;BMP_pressure;BME280_temperature;BME280_humidity;BME280_pressure;Samples;Min_cycle;Max_cycle;Signal;HPM_P1;HPM_P2
2022/12/11 00:01:57;;;;;;;8.02;7.43;;;;;;;;;;5121023;28;20503;-72
2022/12/11 00:04:25;;;;;;;8.00;7.30;;;;;;;;;;5121324;28;20586;-72
2022/12/11 00:06:52;;;;;;;8.13;7.53;;;;;;;;;;5120767;28;20203;-72
2022/12/11 00:09:22;;;;;;;7.40;6.72;;;;;;;;;;5120687;28;20203;-71
2022/12/11 00:11:50;;;;;;;7.50;6.85;;;;;;;;;;5120517;28;20330;-71
2022/12/11 00:14:17;;;;;;;7.38;6.78;;;;;;;;;;5120876;28;20512;-72
2022/12/11 00:16:45;;;;;;;7.95;7.25;;;;;;;;;;5120961;28;20225;-70
2022/12/11 00:19:13;;;;;;;6.78;6.28;;;;;;;;;;5120039;28;20575;-72
2022/12/11 00:21:41;;;;;;;7.10;6.50;;;;;;;;;;5120558;28;20201;-71
2022/12/11 00:24:09;;;;;;;6.90;6.30;;;;;;;;;;5120518;28;20210;-71
2022/12/11 00:26:39;;;;;;;7.25;6.65;;;;;;;;;;5120549;28;20211;-70
2022/12/11 00:29:07;;;;;;;6.90;6.40;;;;;;;;;;5119714;28;20207;-71
2022/12/11 00:31:36;;;;;;;6.88;6.32;;;;;;;;;;5119482;28;20622;-70
2022/12/11 00:34:06;;;;;;;6.70;6.10;;;;;;;;;;5120113;28;20203;-71
2022/12/11 00:36:34;;;;;;;6.65;6.05;;;;;;;;;;5120631;28;20203;-69
2022/12/11 00:39:02;;;;;;;6.43;5.88;;;;;;;;;;5120076;28;20203;-73
2022/12/11 00:41:31;;;;;;;6.22;5.72;;;;;;;;;;5119894;28;20305;-73
2022/12/11 00:44:00;;;;;;;5.82;5.32;;;;;;;;;;5119943;28;20203;-71
2022/12/11 00:46:27;;;;;;;6.40;5.80;;;;;;;;;;5119814;28;20711;-72
2022/12/11 00:48:55;;;;;;;6.13;5.63;;;;;;;;;;5119846;28;20592;-71
2022/12/11 00:51:24;;;;;;;5.70;5.20;;;;;;;;;;5119621;28;20606;-74
2022/12/11 00:53:52;;;;;;;5.63;5.13;;;;;;;;;;5119672;28;20199;-71
2022/12/11 00:56:21;;;;;;;5.75;5.25;;;;;;;;;;5119965;28;20210;-69
2022/12/11 00:58:50;;;;;;;5.35;4.95;;;;;;;;;;5119708;28;20688;-69
2022/12/11 01:01:20;;;;;;;5.47;5.07;;;;;;;;;;5119489;28;20199;-71
2022/12/11 01:03:48;;;;;;;5.28;4.88;;;;;;;;;;5120044;28;20211;-70
2022/12/11 01:06:16;;;;;;;5.35;4.95;;;;;;;;;;5119998;28;20203;-68
2022/12/11 01:08:45;;;;;;;4.95;4.55;;;;;;;;;;5119978;28;20203;-70
2022/12/11 01:11:12;;;;;;;5.05;4.65;;;;;;;;;;5119649;28;20226;-70
2022/12/11 01:13:40;;;;;;;5.22;4.82;;;;;;;;;;5119761;28;20214;-70
2022/12/11 01:16:09;;;;;;;4.93;4.53;;;;;;;;;;5119574;28;20203;-71
2022/12/11 01:18:39;;;;;;;4.68;4.28;;;;;;;;;;5111323;28;20542;-72
2022/12/11 01:21:07;;;;;;;4.80;4.40;;;;;;;;;;5119616;28;20207;-72
2022/12/11 01:23:35;;;;;;;4.35;4.05;;;;;;;;;;5119394;28;20203;-70
2022/12/11 01:26:07;;;;;;;4.60;4.30;;;;;;;;;;5119732;28;20562;-71
2022/12/11 01:28:34;;;;;;;4.78;4.38;;;;;;;;;;5119457;28;20217;-70
2022/12/11 01:31:02;;;;;;;4.55;4.18;;;;;;;;;;5119650;28;20227;-70
2022/12/11 01:33:30;;;;;;;4.38;3.97;;;;;;;;;;5119334;28;20207;-70
2022/12/11 01:36:00;;;;;;;4.80;4.40;;;;;;;;;;5119160;28;20203;-72
2022/12/11 01:38:28;;;;;;;4.50;4.15;;;;;;;;;;5119333;28;20217;-70
2022/12/11 01:40:56;;;;;;;4.45;4.13;;;;;;;;;;5119303;28;20202;-71
2022/12/11 01:43:24;;;;;;;4.32;4.03;;;;;;;;;;5128637;27;20238;-72
2022/12/11 01:45:51;;;;;;;4.55;4.22;;;;;;;;;;5138939;27;20266;-72
2022/12/11 01:48:21;;;;;;;4.20;3.90;;;;;;;;;;5139785;27;20585;-70
2022/12/11 01:50:50;;;;;;;4.35;4.05;;;;;;;;;;5139097;27;20214;-71
2022/12/11 01:53:21;;;;;;;4.00;3.70;;;;;;;;;;5139451;27;20223;-71
2022/12/11 01:55:52;;;;;;;4.18;3.88;;;;;;;;;;5139385;27;20202;-71
2022/12/11 01:58:21;;;;;;;4.10;3.80;;;;;;;;;;5122124;27;20202;-71
2022/12/11 02:00:49;;;;;;;3.83;3.53;;;;;;;;;;5139488;27;20296;-70
2022/12/11 02:03:17;;;;;;;3.80;3.50;;;;;;;;;;5139569;27;20237;-70
2022/12/11 02:05:45;;;;;;;4.10;3.80;;;;;;;;;;5139294;27;20202;-69
2022/12/11 02:08:13;;;;;;;3.97;3.67;;;;;;;;;;5139757;27;20202;-70
2022/12/11 02:10:47;;;;;;;4.15;3.75;;;;;;;;;;5139528;27;20278;-70
2022/12/11 02:13:17;;;;;;;6.18;5.57;;;;;;;;;;5139378;27;20258;-70
2022/12/11 02:15:49;;;;;;;5.25;4.75;;;;;;;;;;5139199;27;20202;-70
2022/12/11 02:18:20;;;;;;;4.80;4.50;;;;;;;;;;5138769;27;20234;-70
2022/12/11 02:20:52;;;;;;;5.00;4.55;;;;;;;;;;5139161;27;20232;-71
2022/12/11 02:23:34;;;;;;;5.00;4.60;;;;;;;;;;5139135;27;20557;-70
2022/12/11 02:26:08;;;;;;;4.80;4.40;;;;;;;;;;5139325;27;20244;-69
2022/12/11 02:28:39;;;;;;;4.95;4.55;;;;;;;;;;5139478;27;20200;-70
2022/12/11 02:31:11;;;;;;;4.70;4.30;;;;;;;;;;5138763;27;20203;-69
2022/12/11 02:33:42;;;;;;;4.97;4.57;;;;;;;;;;5138836;27;20283;-69
2022/12/11 02:36:10;;;;;;;4.93;4.43;;;;;;;;;;5138787;27;20251;-70
2022/12/11 02:38:40;;;;;;;4.72;4.32;;;;;;;;;;5138159;27;20583;-69
2022/12/11 02:41:08;;;;;;;4.90;4.60;;;;;;;;;;5138967;27;20267;-68
2022/12/11 02:43:39;;;;;;;4.68;4.28;;;;;;;;;;5122426;27;20700;-69
2022/12/11 02:46:08;;;;;;;4.40;4.10;;;;;;;;;;5117634;28;20312;-71
2022/12/11 02:48:37;;;;;;;4.47;4.07;;;;;;;;;;5117676;28;20210;-69
2022/12/11 02:51:06;;;;;;;4.38;4.07;;;;;;;;;;5118005;28;20601;-69
2022/12/11 02:53:36;;;;;;;4.60;4.20;;;;;;;;;;5118083;28;20313;-69
2022/12/11 02:56:08;;;;;;;4.47;4.10;;;;;;;;;;5117779;28;20253;-68
2022/12/11 02:58:38;;;;;;;4.72;4.32;;;;;;;;;;5118309;28;20534;-69
2022/12/11 03:01:07;;;;;;;4.50;4.18;;;;;;;;;;5118234;28;20206;-69
2022/12/11 03:03:35;;;;;;;4.78;4.38;;;;;;;;;;5118158;28;20246;-69
2022/12/11 03:06:03;;;;;;;4.43;4.13;;;;;;;;;;5118133;28;20203;-70
2022/12/11 03:08:31;;;;;;;4.13;3.83;;;;;;;;;;5118548;28;20298;-69
2022/12/11 03:10:59;;;;;;;4.53;4.22;;;;;;;;;;5117807;28;20194;-69
2022/12/11 03:13:27;;;;;;;3.97;3.67;;;;;;;;;;5117987;28;20226;-69
2022/12/11 03:16:00;;;;;;;4.05;3.75;;;;;;;;;;5117766;28;20301;-69
2022/12/11 03:18:31;;;;;;;4.40;4.00;;;;;;;;;;5118184;28;20210;-69
2022/12/11 03:21:03;;;;;;;4.22;3.92;;;;;;;;;;5118277;28;20242;-69
2022/12/11 03:23:33;;;;;;;4.22;3.92;;;;;;;;;;5118036;28;20259;-68
2022/12/11 03:26:03;;;;;;;4.47;4.10;;;;;;;;;;5117601;28;20600;-69
2022/12/11 03:28:33;;;;;;;3.78;3.47;;;;;;;;;;5117638;28;20207;-69
2022/12/11 03:31:04;;;;;;;3.67;3.38;;;;;;;;;;5118079;28;20213;-69
2022/12/11 03:33:35;;;;;;;3.80;3.50;;;;;;;;;;5117848;28;20317;-69
2022/12/11 03:36:06;;;;;;;3.92;3.63;;;;;;;;;;5118151;28;20521;-69
2022/12/11 03:38:35;;;;;;;3.80;3.50;;;;;;;;;;5118203;28;20229;-69
2022/12/11 03:41:04;;;;;;;4.13;3.83;;;;;;;;;;5117955;28;20202;-69
2022/12/11 03:43:32;;;;;;;4.22;3.92;;;;;;;;;;5117283;28;20321;-69
2022/12/11 03:46:00;;;;;;;3.67;3.38;;;;;;;;;;5117870;28;20594;-68
2022/12/11 03:48:29;;;;;;;3.40;3.20;;;;;;;;;;5117635;28;20210;-69
2022/12/11 03:50:59;;;;;;;3.92;3.63;;;;;;;;;;5117691;28;20203;-69
2022/12/11 03:53:27;;;;;;;3.70;3.40;;;;;;;;;;5117825;28;20618;-69
2022/12/11 03:55:58;;;;;;;3.80;3.50;;;;;;;;;;5117699;28;20563;-69
2022/12/11 03:58:26;;;;;;;3.70;3.40;;;;;;;;;;5117530;28;20203;-71
2022/12/11 04:00:54;;;;;;;3.65;3.35;;;;;;;;;;5117458;28;20239;-69
2022/12/11 04:03:22;;;;;;;3.38;3.08;;;;;;;;;;5117750;28;20199;-69
2022/12/11 04:05:50;;;;;;;3.70;3.40;;;;;;;;;;5117502;28;20508;-71
2022/12/11 04:08:20;;;;;;;3.33;3.03;;;;;;;;;;5121385;28;20544;-69
2022/12/11 04:11:33;;;;;;;3.83;3.53;;;;;;;;;;5121199;28;20218;-69
2022/12/11 04:13:36;;;;;;;3.50;3.20;;;;;;;;;;5121469;28;20227;-70
2022/12/11 04:16:02;;;;;;;3.80;3.50;;;;;;;;;;5121023;28;20210;-69
2022/12/11 04:24:17;;;;;;;3.58;3.28;;;;;;;;;;5120789;28;20309;-70
2022/12/11 04:26:45;;;;;;;3.58;3.35;;;;;;;;;;5120417;28;20207;-70
2022/12/11 04:29:13;;;;;;;3.60;3.30;;;;;;;;;;5120747;28;20214;-69
2022/12/11 04:31:41;;;;;;;3.65;3.35;;;;;;;;;;5120652;28;20494;-69
2022/12/11 04:34:09;;;;;;;3.70;3.40;;;;;;;;;;5120513;28;20231;-69
2022/12/11 04:36:36;;;;;;;3.88;3.58;;;;;;;;;;5120923;28;20713;-69
2022/12/11 04:39:06;;;;;;;3.60;3.30;;;;;;;;;;5120516;28;20203;-69
2022/12/11 04:41:34;;;;;;;3.60;3.30;;;;;;;;;;5120150;28;20297;-69
2022/12/11 04:44:02;;;;;;;3.63;3.33;;;;;;;;;;5120916;28;20271;-69
2022/12/11 04:46:30;;;;;;;4.00;3.70;;;;;;;;;;5120389;28;20207;-70
2022/12/11 04:48:59;;;;;;;3.72;3.42;;;;;;;;;;5119869;28;20620;-69
2022/12/11 04:51:27;;;;;;;3.75;3.45;;;;;;;;;;5120232;28;20202;-69
2022/12/11 04:53:55;;;;;;;4.00;3.70;;;;;;;;;;5124703;27;20242;-69
2022/12/11 04:56:24;;;;;;;3.65;3.35;;;;;;;;;;5139911;27;20581;-68
2022/12/11 04:58:52;;;;;;;4.28;3.95;;;;;;;;;;5139665;27;20222;-69
2022/12/11 05:01:20;;;;;;;3.58;3.28;;;;;;;;;;5140599;27;20464;-69
2022/12/11 05:03:48;;;;;;;3.55;3.25;;;;;;;;;;5140614;27;20198;-69
2022/12/11 05:06:16;;;;;;;3.85;3.55;;;;;;;;;;5140662;27;20202;-70
2022/12/11 05:08:44;;;;;;;3.72;3.38;;;;;;;;;;5140403;27;20225;-69
2022/12/11 05:11:12;;;;;;;3.60;3.30;;;;;;;;;;5140566;27;20255;-68
2022/12/11 05:13:41;;;;;;;3.35;3.08;;;;;;;;;;5140126;27;20256;-69
2022/12/11 05:16:09;;;;;;;3.88;3.58;;;;;;;;;;5140394;27;20302;-68
2022/12/11 05:18:37;;;;;;;3.60;3.30;;;;;;;;;;5139962;27;20293;-69
2022/12/11 05:21:05;;;;;;;3.80;3.50;;;;;;;;;;5140229;27;20296;-68
2022/12/11 05:23:33;;;;;;;3.60;3.30;;;;;;;;;;5140684;27;20280;-69
2022/12/11 05:26:01;;;;;;;3.63;3.33;;;;;;;;;;5140637;27;20304;-70
2022/12/11 05:28:29;;;;;;;4.00;3.70;;;;;;;;;;5139910;27;20231;-68
2022/12/11 05:30:59;;;;;;;3.35;3.15;;;;;;;;;;5140603;27;20202;-69
2022/12/11 05:33:27;;;;;;;4.28;3.88;;;;;;;;;;5139522;27;20656;-68
2022/12/11 05:35:54;;;;;;;3.60;3.30;;;;;;;;;;5140059;27;20224;-68
2022/12/11 05:38:21;;;;;;;3.45;3.15;;;;;;;;;;5139060;27;20298;-69
2022/12/11 05:40:56;;;;;;;3.75;3.45;;;;;;;;;;5139851;27;20616;-69
2022/12/11 05:43:23;;;;;;;3.70;3.40;;;;;;;;;;5139674;27;20283;-70
2022/12/11 05:45:50;;;;;;;3.67;3.38;;;;;;;;;;5140085;27;20297;-68
2022/12/11 05:48:20;;;;;;;3.90;3.60;;;;;;;;;;5140007;27;20206;-68
2022/12/11 05:50:57;;;;;;;3.85;3.55;;;;;;;;;;5139950;27;20202;-68
2022/12/11 05:53:24;;;;;;;3.97;3.67;;;;;;;;;;5139954;27;20232;-70
2022/12/11 05:55:52;;;;;;;3.80;3.50;;;;;;;;;;5139323;27;20282;-68
2022/12/11 05:58:19;;;;;;;3.72;3.42;;;;;;;;;;5132817;27;20197;-68
2022/12/11 06:00:47;;;;;;;3.65;3.35;;;;;;;;;;5139426;27;20298;-68
2022/12/11 06:03:14;;;;;;;3.83;3.53;;;;;;;;;;5138732;27;20285;-68
2022/12/11 06:05:43;;;;;;;3.90;3.60;;;;;;;;;;5139749;27;20471;-69
2022/12/11 06:08:11;;;;;;;4.20;3.90;;;;;;;;;;5139332;27;20570;-68
2022/12/11 06:10:38;;;;;;;4.00;3.70;;;;;;;;;;5139231;27;20264;-68
2022/12/11 06:13:06;;;;;;;3.83;3.53;;;;;;;;;;5138997;27;20312;-69
2022/12/11 06:15:33;;;;;;;3.67;3.38;;;;;;;;;;5139155;27;20604;-68
2022/12/11 06:18:01;;;;;;;3.90;3.60;;;;;;;;;;5138844;27;20520;-69
2022/12/11 06:20:28;;;;;;;3.72;3.40;;;;;;;;;;5138981;27;20577;-68
2022/12/11 06:22:57;;;;;;;3.78;3.47;;;;;;;;;;5138607;27;20198;-69
2022/12/11 06:25:24;;;;;;;4.00;3.70;;;;;;;;;;5138878;27;20209;-68
2022/12/11 06:27:52;;;;;;;3.65;3.35;;;;;;;;;;5138928;27;20206;-70
2022/12/11 06:30:19;;;;;;;3.85;3.55;;;;;;;;;;5137889;27;20664;-70
2022/12/11 06:32:47;;;;;;;4.00;3.70;;;;;;;;;;5139203;27;20218;-69
2022/12/11 06:35:14;;;;;;;3.92;3.63;;;;;;;;;;5138734;27;20202;-69
2022/12/11 06:37:42;;;;;;;3.90;3.60;;;;;;;;;;5138708;27;20194;-68
2022/12/11 06:40:11;;;;;;;3.97;3.67;;;;;;;;;;5138686;27;20288;-68
2022/12/11 06:42:39;;;;;;;4.00;3.70;;;;;;;;;;5138127;27;20221;-69
2022/12/11 06:45:07;;;;;;;4.05;3.75;;;;;;;;;;5138092;27;20628;-68
2022/12/11 06:47:35;;;;;;;3.60;3.30;;;;;;;;;;5138488;27;20203;-69
2022/12/11 06:50:02;;;;;;;3.67;3.38;;;;;;;;;;5138779;27;20202;-68
2022/12/11 06:52:29;;;;;;;3.75;3.45;;;;;;;;;;5138452;27;20206;-68
2022/12/11 06:54:57;;;;;;;3.90;3.60;;;;;;;;;;5138732;28;20298;-68
2022/12/11 06:57:26;;;;;;;3.97;3.67;;;;;;;;;;5138763;28;20354;-70
2022/12/11 06:59:54;;;;;;;4.10;3.78;;;;;;;;;;5138470;28;20550;-70
2022/12/11 07:02:21;;;;;;;3.90;3.60;;;;;;;;;;5138892;28;20485;-70
2022/12/11 07:04:49;;;;;;;3.72;3.42;;;;;;;;;;5138507;28;20212;-68
2022/12/11 07:07:18;;;;;;;3.70;3.40;;;;;;;;;;5138557;28;20202;-70
2022/12/11 07:09:46;;;;;;;3.90;3.60;;;;;;;;;;5138040;28;20206;-70
2022/12/11 07:12:13;;;;;;;4.07;3.78;;;;;;;;;;5138369;28;20305;-68
2022/12/11 07:14:42;;;;;;;3.60;3.30;;;;;;;;;;5138628;28;20397;-70
2022/12/11 07:17:09;;;;;;;3.58;3.28;;;;;;;;;;5138204;28;20202;-69
2022/12/11 07:19:37;;;;;;;3.85;3.55;;;;;;;;;;5138296;28;20213;-68
2022/12/11 07:22:04;;;;;;;4.05;3.75;;;;;;;;;;5138216;28;20202;-68
2022/12/11 07:24:33;;;;;;;3.60;3.30;;;;;;;;;;5137735;28;20837;-68
2022/12/11 07:27:00;;;;;;;4.07;3.78;;;;;;;;;;5137847;28;20248;-70
2022/12/11 07:29:27;;;;;;;3.90;3.60;;;;;;;;;;5137855;28;20195;-70
2022/12/11 07:31:56;;;;;;;4.00;3.70;;;;;;;;;;5138250;28;20220;-68
2022/12/11 07:34:24;;;;;;;3.83;3.53;;;;;;;;;;5138017;28;20222;-70
2022/12/11 07:36:52;;;;;;;4.07;3.78;;;;;;;;;;5138375;28;20206;-68
2022/12/11 07:39:19;;;;;;;3.90;3.60;;;;;;;;;;5136219;28;20568;-68
2022/12/11 07:41:46;;;;;;;3.63;3.33;;;;;;;;;;5127947;27;20641;-68
2022/12/11 07:44:14;;;;;;;3.92;3.63;;;;;;;;;;5115233;27;20490;-71
2022/12/11 07:46:42;;;;;;;3.78;3.47;;;;;;;;;;5110189;28;20208;-70
2022/12/11 07:49:11;;;;;;;3.47;3.17;;;;;;;;;;5111372;28;20314;-69
2022/12/11 07:51:39;;;;;;;3.78;3.45;;;;;;;;;;5120795;28;20290;-69
2022/12/11 07:54:07;;;;;;;3.55;3.25;;;;;;;;;;5120634;28;20633;-70
2022/12/11 07:56:35;;;;;;;3.45;3.15;;;;;;;;;;5121405;28;20306;-70
2022/12/11 07:59:03;;;;;;;3.50;3.20;;;;;;;;;;5119849;28;20601;-70
2022/12/11 08:01:32;;;;;;;4.05;3.75;;;;;;;;;;5121017;28;20544;-70
2022/12/11 08:03:59;;;;;;;4.10;3.80;;;;;;;;;;5121185;28;20199;-70
2022/12/11 08:06:29;;;;;;;5.57;5.07;;;;;;;;;;5120790;28;20606;-70
2022/12/11 08:08:57;;;;;;;5.32;4.82;;;;;;;;;;5120360;28;20199;-70
2022/12/11 08:11:24;;;;;;;5.32;4.93;;;;;;;;;;5120207;28;20206;-70
2022/12/11 08:13:52;;;;;;;4.68;4.28;;;;;;;;;;5119279;28;20317;-70
2022/12/11 08:16:20;;;;;;;5.32;4.78;;;;;;;;;;5119604;28;20290;-70
2022/12/11 08:18:47;;;;;;;5.40;4.90;;;;;;;;;;5119406;28;20293;-70
2022/12/11 08:21:16;;;;;;;5.68;5.18;;;;;;;;;;5119776;28;20246;-70
2022/12/11 08:23:45;;;;;;;5.60;5.10;;;;;;;;;;5119619;28;20478;-69
2022/12/11 08:26:13;;;;;;;5.70;5.20;;;;;;;;;;5119738;28;20289;-70
2022/12/11 08:28:41;;;;;;;5.28;4.82;;;;;;;;;;5099714;28;20294;-70
2022/12/11 08:31:10;;;;;;;6.97;4.75;;;;;;;;;;5099974;28;20203;-70
2022/12/11 08:33:38;;;;;;;5.75;5.25;;;;;;;;;;5099228;28;20234;-70
2022/12/11 08:36:06;;;;;;;5.70;5.20;;;;;;;;;;5099339;28;20306;-70
2022/12/11 08:38:33;;;;;;;5.70;5.07;;;;;;;;;;5117050;28;20199;-69
2022/12/11 08:41:10;;;;;;;5.53;5.03;;;;;;;;;;5119592;28;20207;-70
2022/12/11 08:43:37;;;;;;;5.40;4.78;;;;;;;;;;5139326;27;20308;-68
2022/12/11 08:46:05;;;;;;;5.45;4.97;;;;;;;;;;5140096;27;20202;-68
2022/12/11 08:48:33;;;;;;;5.15;4.65;;;;;;;;;;5139547;27;20202;-68
2022/12/11 08:51:01;;;;;;;6.13;4.40;;;;;;;;;;5140525;27;20229;-68
2022/12/11 08:53:29;;;;;;;4.90;4.30;;;;;;;;;;5140554;27;20487;-69
2022/12/11 08:56:01;;;;;;;5.03;4.53;;;;;;;;;;5140539;27;20202;-70
2022/12/11 08:58:30;;;;;;;5.25;4.15;;;;;;;;;;5140547;27;20202;-69
2022/12/11 09:00:58;;;;;;;4.88;4.47;;;;;;;;;;5135672;27;20281;-69
2022/12/11 09:03:26;;;;;;;4.95;4.53;;;;;;;;;;5134059;27;20194;-68
2022/12/11 09:05:53;;;;;;;4.75;4.30;;;;;;;;;;5140244;27;20202;-71
2022/12/11 09:08:20;;;;;;;5.10;4.40;;;;;;;;;;5140041;27;20206;-68
2022/12/11 09:10:48;;;;;;;4.35;3.95;;;;;;;;;;5139841;27;20205;-69
2022/12/11 09:13:15;;;;;;;4.38;3.97;;;;;;;;;;5139678;27;20289;-70
2022/12/11 09:15:44;;;;;;;8.18;7.47;;;;;;;;;;5139907;27;20208;-68
2022/12/11 09:18:11;;;;;;;12.55;11.35;;;;;;;;;;5140246;27;20297;-70
2022/12/11 09:20:39;;;;;;;11.45;10.45;;;;;;;;;;5139448;27;20241;-69
2022/12/11 09:23:06;;;;;;;9.50;8.70;;;;;;;;;;5139266;27;20208;-69
2022/12/11 09:25:34;;;;;;;9.18;8.38;;;;;;;;;;5139915;27;20202;-69
2022/12/11 09:28:01;;;;;;;9.15;8.35;;;;;;;;;;5139308;27;20645;-69
2022/12/11 09:30:28;;;;;;;9.32;8.52;;;;;;;;;;5139832;27;20462;-69
2022/12/11 09:32:57;;;;;;;9.00;8.27;;;;;;;;;;5139129;27;20504;-70
2022/12/11 09:35:25;;;;;;;8.93;8.13;;;;;;;;;;5139866;27;20375;-68
2022/12/11 09:37:52;;;;;;;8.52;7.82;;;;;;;;;;5139162;27;20237;-68
2022/12/11 09:40:20;;;;;;;7.53;6.93;;;;;;;;;;5139499;27;20202;-68
2022/12/11 09:42:50;;;;;;;7.97;7.28;;;;;;;;;;5139127;27;20234;-70
2022/12/11 09:45:18;;;;;;;7.28;6.68;;;;;;;;;;5138325;27;20263;-70
2022/12/11 09:47:48;;;;;;;7.47;6.78;;;;;;;;;;5138853;27;20238;-69
2022/12/11 09:50:20;;;;;;;7.65;6.97;;;;;;;;;;5138781;27;20198;-68
2022/12/11 09:52:53;;;;;;;6.85;6.15;;;;;;;;;;5138458;27;20241;-68
2022/12/11 09:55:23;;;;;;;6.72;6.13;;;;;;;;;;5138740;27;20628;-70
2022/12/11 09:57:56;;;;;;;6.35;5.80;;;;;;;;;;5138416;27;20209;-69
2022/12/11 10:00:27;;;;;;;5.97;5.47;;;;;;;;;;5138190;27;20202;-68
2022/12/11 10:03:10;;;;;;;6.30;5.80;;;;;;;;;;5137858;27;20285;-70
2022/12/11 10:05:46;;;;;;;6.90;5.70;;;;;;;;;;5137580;27;20212;-68
2022/12/11 10:08:16;;;;;;;5.45;5.05;;;;;;;;;;5138316;27;20202;-68
2022/12/11 10:10:45;;;;;;;5.63;5.18;;;;;;;;;;5138375;27;20550;-69
2022/12/11 10:13:17;;;;;;;5.35;4.95;;;;;;;;;;5137779;27;20309;-69
2022/12/11 10:15:50;;;;;;;5.70;5.20;;;;;;;;;;5138277;27;20281;-70
2022/12/11 10:18:21;;;;;;;6.15;5.32;;;;;;;;;;5138644;27;20233;-68
2022/12/11 10:20:51;;;;;;;5.68;5.18;;;;;;;;;;5138415;27;20202;-70
2022/12/11 10:23:20;;;;;;;5.95;5.45;;;;;;;;;;5138318;27;20577;-69
2022/12/11 10:25:51;;;;;;;7.63;5.70;;;;;;;;;;5137822;27;20209;-68
2022/12/11 10:28:19;;;;;;;6.63;5.35;;;;;;;;;;5138218;27;20574;-68
2022/12/11 10:30:49;;;;;;;5.40;4.70;;;;;;;;;;5136813;27;20624;-69
2022/12/11 10:33:21;;;;;;;5.70;4.90;;;;;;;;;;5126724;27;20294;-70
2022/12/11 10:35:51;;;;;;;7.57;5.55;;;;;;;;;;5136911;27;20237;-69
2022/12/11 10:38:22;;;;;;;5.82;4.82;;;;;;;;;;5138387;27;20246;-69
2022/12/11 10:40:51;;;;;;;7.15;5.45;;;;;;;;;;5137185;27;20190;-69
2022/12/11 10:43:19;;;;;;;6.82;5.30;;;;;;;;;;5137255;27;20328;-68
2022/12/11 10:45:53;;;;;;;7.32;5.13;;;;;;;;;;5138015;27;20237;-69
2022/12/11 10:48:22;;;;;;;5.90;5.30;;;;;;;;;;5138405;27;20213;-68
2022/12/11 10:50:59;;;;;;;5.47;4.72;;;;;;;;;;5137134;27;20261;-68
2022/12/11 10:53:26;;;;;;;5.68;4.60;;;;;;;;;;5137718;27;20379;-69
2022/12/11 10:55:54;;;;;;;8.95;4.80;;;;;;;;;;5136915;27;20208;-68
2022/12/11 10:58:23;;;;;;;6.53;5.00;;;;;;;;;;5136867;28;20565;-68
2022/12/11 11:01:05;;;;;;;6.30;4.93;;;;;;;;;;5135921;28;20201;-68
2022/12/11 11:03:33;;;;;;;5.35;4.82;;;;;;;;;;5137841;27;20212;-68
2022/12/11 11:06:14;;;;;;;5.25;4.75;;;;;;;;;;5137249;28;20292;-69
2022/12/11 11:08:43;;;;;;;6.97;4.68;;;;;;;;;;5137331;27;20213;-68
2022/12/11 11:11:16;;;;;;;5.10;4.32;;;;;;;;;;5136741;27;20657;-68
2022/12/11 11:13:44;;;;;;;5.40;4.38;;;;;;;;;;5137241;28;20202;-68
2022/12/11 11:16:15;;;;;;;5.45;4.53;;;;;;;;;;5139373;27;20202;-68
2022/12/11 11:18:42;;;;;;;7.85;6.82;;;;;;;;;;5141660;27;20212;-68
2022/12/11 11:21:18;;;;;;;7.40;6.45;;;;;;;;;;5141714;27;20513;-69
2022/12/11 11:23:46;;;;;;;6.78;5.70;;;;;;;;;;5141314;27;20300;-68
2022/12/11 11:26:14;;;;;;;6.68;6.00;;;;;;;;;;5141561;27;20301;-68
2022/12/11 11:28:42;;;;;;;7.22;5.28;;;;;;;;;;5141314;27;20262;-68
2022/12/11 11:31:11;;;;;;;5.72;5.13;;;;;;;;;;5140325;27;20246;-70
2022/12/11 11:33:46;;;;;;;6.45;5.32;;;;;;;;;;5140893;27;20268;-70
2022/12/11 11:36:20;;;;;;;6.05;5.35;;;;;;;;;;5141353;27;20565;-70
2022/12/11 11:38:50;;;;;;;8.00;5.60;;;;;;;;;;5141381;27;20296;-68
2022/12/11 11:41:20;;;;;;;5.35;4.82;;;;;;;;;;5140037;27;20289;-68
2022/12/11 11:43:49;;;;;;;5.45;4.95;;;;;;;;;;5140747;27;20305;-70
2022/12/11 11:46:19;;;;;;;5.38;4.78;;;;;;;;;;5140931;27;20208;-70
2022/12/11 11:48:55;;;;;;;5.80;5.20;;;;;;;;;;5140967;27;20705;-68
2022/12/11 11:51:25;;;;;;;5.10;4.60;;;;;;;;;;5140694;27;20273;-68
2022/12/11 11:53:54;;;;;;;5.03;4.45;;;;;;;;;;5140049;27;20211;-68
2022/12/11 11:56:23;;;;;;;5.38;4.88;;;;;;;;;;5140379;27;20289;-70
2022/12/11 11:58:55;;;;;;;5.30;4.72;;;;;;;;;;5140414;27;20208;-69
2022/12/11 12:01:22;;;;;;;5.15;4.65;;;;;;;;;;5139280;27;20205;-70
2022/12/11 12:03:51;;;;;;;5.65;4.95;;;;;;;;;;5140372;27;20203;-70
2022/12/11 12:06:22;;;;;;;8.38;7.55;;;;;;;;;;5140597;27;20288;-69
2022/12/11 12:08:54;;;;;;;10.05;7.90;;;;;;;;;;5140909;27;20202;-70
2022/12/11 12:11:28;;;;;;;9.38;7.57;;;;;;;;;;5140395;27;20301;-68
2022/12/11 12:13:59;;;;;;;7.63;6.80;;;;;;;;;;5140216;27;20592;-68
2022/12/11 12:16:31;;;;;;;8.00;6.63;;;;;;;;;;5140728;27;20292;-68
2022/12/11 12:19:03;;;;;;;7.80;6.28;;;;;;;;;;5140581;27;20202;-68
2022/12/11 12:21:34;;;;;;;8.90;6.88;;;;;;;;;;5140884;27;20258;-68
2022/12/11 12:24:13;;;;;;;7.60;6.35;;;;;;;;;;5137042;27;20633;-68
2022/12/11 12:26:42;;;;;;;7.30;6.15;;;;;;;;;;5133773;27;20241;-68
2022/12/11 12:29:15;;;;;;;6.82;5.70;;;;;;;;;;5138917;27;20293;-68
2022/12/11 12:31:50;;;;;;;6.82;6.03;;;;;;;;;;5139599;27;20317;-69
2022/12/11 12:34:22;;;;;;;7.35;6.38;;;;;;;;;;5139550;27;20213;-68
2022/12/11 12:36:55;;;;;;;7.88;6.20;;;;;;;;;;5139599;27;20206;-69
2022/12/11 12:39:27;;;;;;;5.97;5.38;;;;;;;;;;5140044;27;20210;-68
2022/12/11 12:41:58;;;;;;;7.15;6.28;;;;;;;;;;5139240;27;20234;-70
2022/12/11 12:44:25;;;;;;;7.38;6.68;;;;;;;;;;5126958;27;20356;-68
2022/12/11 12:46:58;;;;;;;8.30;6.53;;;;;;;;;;5129902;27;20629;-68
2022/12/11 12:49:37;;;;;;;6.53;5.80;;;;;;;;;;5138333;27;20209;-69
2022/12/11 12:52:05;;;;;;;6.75;6.00;;;;;;;;;;5139456;27;20284;-69
2022/12/11 12:54:36;;;;;;;7.50;5.78;;;;;;;;;;5139025;27;20230;-68
2022/12/11 12:57:04;;;;;;;6.43;5.43;;;;;;;;;;5139907;27;20281;-68
2022/12/11 12:59:33;;;;;;;7.32;5.78;;;;;;;;;;5139596;27;20289;-70
2022/12/11 13:02:02;;;;;;;6.35;5.57;;;;;;;;;;5139101;27;20246;-68
2022/12/11 13:04:34;;;;;;;6.28;5.05;;;;;;;;;;5138818;27;20203;-68
2022/12/11 13:07:11;;;;;;;6.20;5.60;;;;;;;;;;5138719;27;20296;-68
2022/12/11 13:09:40;;;;;;;6.43;5.10;;;;;;;;;;5138162;27;20194;-69
2022/12/11 13:12:13;;;;;;;5.95;5.35;;;;;;;;;;5138285;27;20312;-68
2022/12/11 13:14:40;;;;;;;7.30;4.90;;;;;;;;;;5138933;27;20229;-71
2022/12/11 13:17:23;;;;;;;7.07;5.10;;;;;;;;;;5137138;27;20213;-68
2022/12/11 13:19:56;;;;;;;6.63;4.65;;;;;;;;;;5137305;27;20744;-68
2022/12/11 13:22:24;;;;;;;7.28;4.60;;;;;;;;;;5137410;27;20212;-69
2022/12/11 13:25:00;;;;;;;7.30;4.75;;;;;;;;;;5137334;27;20285;-68
2022/12/11 13:27:37;;;;;;;9.07;4.47;;;;;;;;;;5138143;27;20209;-68
2022/12/11 13:30:06;;;;;;;6.10;4.85;;;;;;;;;;5137081;27;20228;-68
2022/12/11 13:32:35;;;;;;;6.50;4.35;;;;;;;;;;5137223;27;20205;-68
2022/12/11 13:35:06;;;;;;;6.38;4.40;;;;;;;;;;5137632;27;20225;-68
2022/12/11 13:37:35;;;;;;;6.90;4.50;;;;;;;;;;5137905;27;20202;-68
2022/12/11 13:40:07;;;;;;;5.85;4.70;;;;;;;;;;5136895;27;20363;-68
2022/12/11 13:42:36;;;;;;;4.88;3.72;;;;;;;;;;5138133;27;20245;-68
2022/12/11 13:45:05;;;;;;;6.70;4.50;;;;;;;;;;5137884;27;20209;-69
2022/12/11 13:47:32;;;;;;;5.60;4.55;;;;;;;;;;5138453;27;20203;-68
2022/12/11 13:50:13;;;;;;;5.32;4.30;;;;;;;;;;5136700;27;20202;-68
2022/12/11 13:52:41;;;;;;;4.60;4.18;;;;;;;;;;5138565;27;20241;-68
2022/12/11 13:55:18;;;;;;;4.88;4.00;;;;;;;;;;5137600;27;20822;-68
2022/12/11 13:57:46;;;;;;;4.50;4.10;;;;;;;;;;5137345;27;20231;-68
2022/12/11 14:00:21;;;;;;;4.25;3.95;;;;;;;;;;5135290;27;20216;-68
2022/12/11 14:02:49;;;;;;;4.25;3.80;;;;;;;;;;5136357;27;20298;-69
2022/12/11 14:05:17;;;;;;;4.28;3.85;;;;;;;;;;5136960;27;20259;-68
2022/12/11 14:07:48;;;;;;;4.57;3.75;;;;;;;;;;5137589;27;20202;-69
2022/12/11 14:10:18;;;;;;;4.90;3.72;;;;;;;;;;5135718;27;20202;-69
2022/12/11 14:12:48;;;;;;;4.45;3.67;;;;;;;;;;5137262;27;20238;-69
2022/12/11 14:15:16;;;;;;;4.40;3.95;;;;;;;;;;5136134;27;20313;-69
2022/12/11 14:17:44;;;;;;;4.50;4.10;;;;;;;;;;5137575;27;20202;-68
2022/12/11 14:20:17;;;;;;;5.03;3.90;;;;;;;;;;5136040;27;20293;-68
2022/12/11 14:22:44;;;;;;;4.65;3.60;;;;;;;;;;5136377;27;20301;-68
2022/12/11 14:25:22;;;;;;;4.50;3.47;;;;;;;;;;5136130;27;20592;-68
2022/12/11 14:27:49;;;;;;;4.65;3.85;;;;;;;;;;5136380;27;20202;-68
2022/12/11 14:30:22;;;;;;;3.95;3.42;;;;;;;;;;5135799;27;20293;-68
2022/12/11 14:32:49;;;;;;;3.80;3.50;;;;;;;;;;5135934;27;20387;-68
2022/12/11 14:35:22;;;;;;;3.83;3.42;;;;;;;;;;5136409;27;20234;-68
2022/12/11 14:37:50;;;;;;;3.90;3.60;;;;;;;;;;5135666;27;20198;-68
2022/12/11 14:40:20;;;;;;;4.05;3.70;;;;;;;;;;5134946;27;20199;-69
2022/12/11 14:42:48;;;;;;;4.05;3.65;;;;;;;;;;5124407;27;20475;-68
2022/12/11 14:45:20;;;;;;;3.97;3.58;;;;;;;;;;5115314;28;20191;-68
2022/12/11 14:47:47;;;;;;;4.35;3.75;;;;;;;;;;5114941;28;20324;-70
2022/12/11 14:50:18;;;;;;;4.07;3.40;;;;;;;;;;5115036;28;20653;-68
2022/12/11 14:52:47;;;;;;;3.88;3.58;;;;;;;;;;5114942;28;20202;-68
2022/12/11 14:55:16;;;;;;;4.47;3.58;;;;;;;;;;5115056;28;20233;-68
2022/12/11 14:57:46;;;;;;;4.25;3.85;;;;;;;;;;5115389;28;20203;-68
2022/12/11 15:00:24;;;;;;;4.22;3.50;;;;;;;;;;5115753;28;20205;-68
2022/12/11 15:02:59;;;;;;;3.40;3.10;;;;;;;;;;5114995;28;20549;-69